Terminal Aerodrome Forecast
Issued by NWS

Home | Current Version | Previous Version | Text Only | Print | Product List | Glossary On
Versions: 1 2 3 4 5 6 7 8 9 10 11 12 13 14 15 16 17 18 19 20 21 22 23 24
573
FTUS41 KRLX 230545
TAFCKB
TAF
KCKB 230545Z 2306/2406 00000KT P6SM SCT008 BKN015
     FM230700 26003KT P6SM BKN090
     FM230900 25004KT P6SM BKN015
     FM231300 35005KT P6SM BKN025
     FM231700 36004KT P6SM SCT020
     FM231900 35005KT P6SM SCT035
     FM240000 02004KT P6SM FEW250=

USA.gov is the U.S. government's official web portal to all federal, state and local government web resources and services.